createdAt,value
2023-05-21T00:01:42.344Z,99.42
2023-05-21T00:04:13.100Z,100.00
2023-05-21T00:06:41.623Z,100.00
2023-05-21T00:09:10.652Z,100.00
2023-05-21T00:11:39.134Z,100.00
2023-05-21T00:14:08.982Z,100.00
2023-05-21T00:16:37.633Z,100.00
2023-05-21T00:19:06.331Z,100.00
2023-05-21T00:21:34.882Z,100.00
2023-05-21T00:24:03.410Z,100.00
2023-05-21T00:26:31.886Z,100.00
2023-05-21T00:29:00.802Z,100.00
2023-05-21T00:31:30.719Z,100.00
2023-05-21T00:33:59.262Z,100.00
2023-05-21T00:36:27.715Z,100.00
2023-05-21T00:38:56.225Z,100.00
2023-05-21T00:41:25.951Z,100.00
2023-05-21T00:43:54.541Z,100.00
2023-05-21T00:46:24.151Z,100.00
2023-05-21T00:48:54.139Z,100.00
2023-05-21T00:51:22.671Z,100.00
2023-05-21T00:53:52.573Z,100.00
2023-05-21T00:56:21.973Z,100.00
2023-05-21T00:58:51.968Z,100.00
2023-05-21T01:01:20.699Z,100.00
2023-05-21T01:03:49.240Z,100.00
2023-05-21T01:06:20.729Z,100.00
2023-05-21T01:08:50.850Z,100.00
2023-05-21T01:11:20.083Z,100.00
2023-05-21T01:13:49.829Z,100.00
2023-05-21T01:16:18.688Z,100.00
2023-05-21T01:18:47.840Z,100.00
2023-05-21T01:21:17.610Z,100.00
2023-05-21T01:23:47.558Z,100.00
2023-05-21T01:26:16.172Z,100.00
2023-05-21T01:28:44.657Z,100.00
2023-05-21T01:31:25.156Z,100.00
2023-05-21T01:33:56.994Z,100.00
2023-05-21T01:36:28.802Z,100.00
2023-05-21T01:39:03.998Z,100.00
2023-05-21T01:41:35.841Z,100.00
2023-05-21T01:44:07.195Z,100.00
2023-05-21T01:46:37.122Z,100.00
2023-05-21T01:49:07.453Z,100.00
2023-05-21T01:51:36.429Z,100.00
2023-05-21T01:54:06.300Z,100.00
2023-05-21T01:56:37.131Z,100.00
2023-05-21T01:59:05.925Z,100.00
2023-05-21T02:01:34.705Z,100.00
2023-05-21T02:04:03.615Z,100.00
2023-05-21T02:06:32.352Z,100.00
2023-05-21T02:09:00.819Z,100.00
2023-05-21T02:11:30.631Z,100.00
2023-05-21T02:13:59.094Z,100.00
2023-05-21T02:16:27.709Z,100.00
2023-05-21T02:18:57.572Z,100.00
2023-05-21T02:21:26.265Z,100.00
2023-05-21T02:23:54.730Z,100.00
2023-05-21T02:26:23.506Z,100.00
2023-05-21T02:28:54.052Z,100.00
2023-05-21T02:31:22.511Z,100.00
2023-05-21T02:33:51.046Z,100.00
2023-05-21T02:36:19.543Z,100.00
2023-05-21T02:38:48.090Z,100.00
2023-05-21T02:41:16.563Z,100.00
2023-05-21T02:43:45.027Z,100.00
2023-05-21T02:46:14.936Z,100.00
2023-05-21T02:48:43.433Z,100.00
2023-05-21T02:51:11.902Z,100.00
2023-05-21T02:53:40.548Z,100.00
2023-05-21T02:56:09.135Z,100.00
2023-05-21T02:58:37.638Z,100.00
2023-05-21T03:01:06.181Z,100.00
2023-05-21T03:03:36.372Z,100.00
2023-05-21T03:06:05.121Z,100.00
2023-05-21T03:08:33.626Z,100.00
2023-05-21T03:11:02.076Z,100.00
2023-05-21T03:13:30.606Z,100.00
2023-05-21T03:15:59.122Z,100.00
2023-05-21T03:18:27.628Z,100.00
2023-05-21T03:20:59.057Z,100.00
2023-05-21T03:23:27.971Z,100.00
2023-05-21T03:25:56.454Z,100.00
2023-05-21T03:28:24.918Z,100.00
2023-05-21T03:30:53.599Z,100.00
2023-05-21T03:33:22.934Z,100.00
2023-05-21T03:35:51.449Z,100.00
2023-05-21T03:38:21.306Z,100.00
2023-05-21T03:40:50.450Z,100.00
2023-05-21T03:43:18.915Z,100.00
2023-05-21T03:45:47.391Z,100.00
2023-05-21T03:48:15.945Z,100.00
2023-05-21T03:50:44.409Z,100.00
2023-05-21T03:53:13.862Z,100.00
2023-05-21T03:55:43.687Z,100.00
2023-05-21T03:58:12.167Z,100.00
2023-05-21T04:00:42.432Z,100.00
2023-05-21T04:03:11.819Z,100.00
2023-05-21T04:05:40.537Z,100.00
2023-05-21T04:08:09.070Z,100.00
2023-05-21T04:10:37.513Z,100.00
2023-05-21T04:13:07.432Z,100.00
2023-05-21T04:15:36.140Z,100.00
2023-05-21T04:18:05.155Z,100.00
2023-05-21T04:20:33.717Z,100.00
2023-05-21T04:23:03.105Z,100.00
2023-05-21T04:25:31.618Z,100.00
2023-05-21T04:28:00.075Z,100.00
2023-05-21T04:30:30.381Z,100.00
2023-05-21T04:33:00.272Z,100.00
2023-05-21T04:35:28.998Z,100.00
2023-05-21T04:37:57.504Z,100.00
2023-05-21T04:40:26.808Z,100.00
2023-05-21T04:42:55.358Z,100.00
2023-05-21T04:45:24.653Z,100.00
2023-05-21T04:47:54.583Z,100.00
2023-05-21T04:50:23.276Z,100.00
2023-05-21T04:52:51.834Z,100.00
2023-05-21T04:55:21.178Z,100.00
2023-05-21T04:57:49.651Z,100.00
2023-05-21T05:00:18.734Z,100.00
2023-05-21T05:02:47.311Z,100.00
2023-05-21T05:05:17.240Z,100.00
2023-05-21T05:07:45.819Z,100.00
2023-05-21T05:10:14.370Z,100.00
2023-05-21T05:12:42.834Z,100.00
2023-05-21T05:15:11.954Z,100.00
2023-05-21T05:17:40.806Z,100.00
2023-05-21T05:20:10.757Z,100.00
2023-05-21T05:22:40.706Z,100.00
2023-05-21T05:25:09.904Z,100.00
2023-05-21T05:27:38.727Z,100.00
2023-05-21T05:30:08.739Z,100.00
2023-05-21T05:32:37.184Z,100.00
2023-05-21T05:35:06.752Z,100.00
2023-05-21T05:37:35.226Z,100.00
2023-05-21T05:40:05.805Z,100.00
2023-05-21T05:42:34.341Z,100.00
2023-05-21T05:45:02.804Z,100.00
2023-05-21T05:47:31.533Z,100.00
2023-05-21T05:50:00.050Z,100.00
2023-05-21T05:52:28.495Z,100.00
2023-05-21T05:54:56.959Z,100.00
2023-05-21T05:57:26.790Z,100.00
2023-05-21T05:59:55.259Z,100.00
2023-05-21T06:02:23.818Z,100.00
2023-05-21T06:04:52.448Z,100.00
2023-05-21T06:07:20.912Z,100.00
2023-05-21T06:09:49.367Z,100.00
2023-05-21T06:12:17.845Z,100.00
2023-05-21T06:14:49.050Z,100.00
2023-05-21T06:17:17.568Z,100.00
2023-05-21T06:19:46.235Z,100.00
2023-05-21T06:22:14.706Z,100.00
2023-05-21T06:24:43.197Z,100.00
2023-05-21T06:27:11.889Z,100.00
2023-05-21T06:29:40.949Z,100.00
2023-05-21T06:32:10.949Z,100.00
2023-05-21T06:34:39.453Z,100.00
2023-05-21T06:37:07.872Z,100.00
2023-05-21T06:39:36.366Z,100.00
2023-05-21T06:42:04.981Z,100.00
2023-05-21T06:44:33.436Z,100.00
2023-05-21T06:47:01.920Z,100.00
2023-05-21T06:49:33.604Z,100.00
2023-05-21T06:52:02.493Z,100.00
2023-05-21T06:54:30.982Z,100.00
2023-05-21T06:56:59.624Z,100.00
2023-05-21T06:59:28.097Z,100.00
2023-05-21T07:01:56.559Z,100.00
2023-05-21T07:04:25.221Z,100.00
2023-05-21T07:06:55.051Z,100.00
2023-05-21T07:09:23.519Z,100.00
2023-05-21T07:11:53.002Z,100.00
2023-05-21T07:14:21.462Z,100.00
2023-05-21T07:16:50.017Z,100.00
2023-05-21T07:19:18.598Z,100.00
2023-05-21T07:21:47.511Z,100.00
2023-05-21T07:24:17.353Z,100.00
2023-05-21T07:26:45.882Z,100.00
2023-05-21T07:29:14.384Z,100.00
2023-05-21T07:31:42.967Z,99.49
2023-05-21T07:34:11.471Z,99.48
2023-05-21T07:36:39.970Z,99.04
2023-05-21T07:39:08.445Z,98.69
2023-05-21T07:41:38.271Z,98.39
2023-05-21T07:44:06.727Z,97.04
2023-05-21T07:46:35.241Z,96.69
2023-05-21T07:49:03.828Z,96.47
2023-05-21T07:51:32.759Z,96.44
2023-05-21T07:54:01.343Z,96.01
2023-05-21T07:56:29.945Z,95.00
2023-05-21T07:58:59.759Z,93.88
2023-05-21T08:01:29.640Z,92.42
2023-05-21T08:04:00.719Z,92.20
2023-05-21T08:06:29.416Z,90.80
2023-05-21T08:08:57.886Z,90.36
2023-05-21T08:11:27.006Z,89.74
2023-05-21T08:13:55.602Z,89.52
2023-05-21T08:16:25.497Z,88.88
2023-05-21T08:18:54.095Z,87.36
2023-05-21T08:21:22.674Z,87.91
2023-05-21T08:23:54.122Z,88.40
2023-05-21T08:26:22.553Z,87.73
2023-05-21T08:28:51.237Z,87.05
2023-05-21T08:31:19.861Z,85.97
2023-05-21T08:33:53.236Z,85.44
2023-05-21T08:36:21.876Z,85.13
2023-05-21T08:38:50.786Z,84.12
2023-05-21T08:41:23.013Z,83.16
2023-05-21T08:43:56.649Z,83.13
2023-05-21T08:46:25.796Z,80.99
2023-05-21T08:48:56.413Z,79.81
2023-05-21T08:51:25.064Z,79.96
2023-05-21T08:53:53.889Z,79.57
2023-05-21T08:56:22.766Z,79.33
2023-05-21T08:58:53.115Z,77.06
2023-05-21T09:01:24.717Z,77.24
2023-05-21T09:04:04.828Z,76.76
2023-05-21T09:06:38.608Z,76.36
2023-05-21T09:09:15.400Z,75.88
2023-05-21T09:11:43.854Z,73.53
2023-05-21T09:14:12.906Z,73.03
2023-05-21T09:16:41.803Z,74.51
2023-05-21T09:19:11.716Z,73.98
2023-05-21T09:21:40.757Z,74.35
2023-05-21T09:24:11.716Z,74.14
2023-05-21T09:26:43.835Z,72.91
2023-05-21T09:29:14.366Z,73.28
2023-05-21T09:31:45.269Z,72.31
2023-05-21T09:34:15.319Z,71.62
2023-05-21T09:36:44.399Z,71.72
2023-05-21T09:39:16.534Z,70.77
2023-05-21T09:41:45.348Z,70.41
2023-05-21T09:44:14.047Z,68.94
2023-05-21T09:46:43.175Z,68.21
2023-05-21T09:49:24.680Z,68.22
2023-05-21T09:51:57.164Z,66.97
2023-05-21T09:54:26.064Z,67.42
2023-05-21T09:56:54.977Z,68.07
2023-05-21T09:59:23.501Z,66.85
2023-05-21T10:01:53.306Z,66.96
2023-05-21T10:04:24.694Z,67.49
2023-05-21T10:06:53.819Z,67.40
2023-05-21T10:09:22.704Z,67.00
2023-05-21T10:11:55.708Z,66.60
2023-05-21T10:14:27.002Z,66.56
2023-05-21T10:16:55.857Z,66.70
2023-05-21T10:19:26.323Z,65.90
2023-05-21T10:21:57.230Z,65.70
2023-05-21T10:24:26.857Z,64.20
2023-05-21T10:26:55.816Z,62.49
2023-05-21T10:29:24.498Z,62.07
2023-05-21T10:31:53.952Z,62.38
2023-05-21T10:34:24.535Z,61.05
2023-05-21T10:36:57.231Z,58.68
2023-05-21T10:39:26.724Z,57.01
2023-05-21T10:42:04.913Z,55.97
2023-05-21T10:44:45.432Z,54.38
2023-05-21T10:47:46.221Z,53.28
2023-05-21T10:50:35.604Z,52.24
2023-05-21T10:53:15.124Z,50.00
2023-05-21T10:55:55.255Z,48.96
2023-05-21T10:58:40.866Z,48.35
2023-05-21T11:01:09.992Z,47.25
2023-05-21T11:03:39.308Z,45.95
2023-05-21T11:06:08.620Z,45.54
2023-05-21T11:08:39.690Z,45.76
2023-05-21T11:11:08.517Z,46.01
2023-05-21T11:13:49.273Z,46.35
2023-05-21T11:16:18.782Z,45.69
2023-05-21T11:19:01.748Z,46.57
2023-05-21T11:21:33.634Z,46.59
2023-05-21T11:24:10.831Z,47.57
2023-05-21T11:27:04.925Z,47.65
2023-05-21T11:29:47.183Z,47.74
2023-05-21T11:32:17.594Z,47.61
2023-05-21T11:34:47.319Z,46.55
2023-05-21T11:37:30.074Z,45.19
2023-05-21T11:40:17.976Z,44.15
2023-05-21T11:42:51.190Z,43.10
2023-05-21T11:45:20.915Z,44.07
2023-05-21T11:47:50.385Z,43.95
2023-05-21T11:50:19.694Z,41.78
2023-05-21T11:52:49.736Z,40.54
2023-05-21T11:55:25.975Z,39.77
2023-05-21T11:57:55.893Z,39.92
2023-05-21T12:00:24.557Z,40.88
2023-05-21T12:02:55.790Z,40.21
2023-05-21T12:05:27.135Z,39.82
2023-05-21T12:07:56.674Z,38.28
2023-05-21T12:10:26.659Z,37.02
2023-05-21T12:12:57.279Z,37.75
2023-05-21T12:15:27.900Z,37.05
2023-05-21T12:17:57.228Z,39.02
2023-05-21T12:20:28.208Z,37.90
2023-05-21T12:22:58.977Z,37.97
2023-05-21T12:25:29.976Z,38.55
2023-05-21T12:27:59.061Z,37.40
2023-05-21T12:30:27.742Z,37.50
2023-05-21T12:33:00.615Z,36.74
2023-05-21T12:35:29.227Z,37.13
2023-05-21T12:37:57.855Z,36.64
2023-05-21T12:40:38.543Z,36.31
2023-05-21T12:43:08.458Z,35.63
2023-05-21T12:45:39.476Z,35.38
2023-05-21T12:48:08.367Z,34.79
2023-05-21T12:50:40.884Z,35.15
2023-05-21T12:53:10.668Z,36.44
2023-05-21T12:55:41.188Z,36.26
2023-05-21T12:58:09.761Z,35.10
2023-05-21T13:00:38.597Z,36.20
2023-05-21T13:03:07.657Z,37.88
2023-05-21T13:05:36.568Z,37.07
2023-05-21T13:08:05.332Z,36.55
2023-05-21T13:10:33.892Z,37.16
2023-05-21T13:13:03.761Z,37.09
2023-05-21T13:15:32.284Z,37.50
2023-05-21T13:18:01.338Z,38.30
2023-05-21T13:20:30.280Z,38.24
2023-05-21T13:22:58.842Z,39.60
2023-05-21T13:25:29.559Z,38.88
2023-05-21T13:27:59.039Z,39.65
2023-05-21T13:30:29.081Z,40.51
2023-05-21T13:32:57.697Z,40.78
2023-05-21T13:35:26.430Z,40.47
2023-05-21T13:37:55.232Z,39.34
2023-05-21T13:40:24.143Z,37.77
2023-05-21T13:42:52.759Z,37.63
2023-05-21T13:45:24.319Z,37.05
2023-05-21T13:47:54.173Z,36.65
2023-05-21T13:50:22.773Z,35.20
2023-05-21T13:52:51.402Z,35.32
2023-05-21T13:55:20.293Z,35.26
2023-05-21T13:57:48.798Z,34.63
2023-05-21T14:00:17.416Z,35.13
2023-05-21T14:02:46.208Z,35.33
2023-05-21T14:05:16.177Z,34.41
2023-05-21T14:07:45.416Z,34.79
2023-05-21T14:10:13.956Z,35.80
2023-05-21T14:12:42.449Z,35.62
2023-05-21T14:15:11.993Z,34.55
2023-05-21T14:17:42.456Z,35.42
2023-05-21T14:20:12.006Z,35.23
2023-05-21T14:22:41.838Z,35.51
2023-05-21T14:25:10.848Z,35.56
2023-05-21T14:27:39.347Z,36.26
2023-05-21T14:30:09.151Z,35.91
2023-05-21T14:32:37.778Z,36.35
2023-05-21T14:35:06.986Z,36.31
2023-05-21T14:37:35.565Z,37.74
2023-05-21T14:40:07.973Z,37.17
2023-05-21T14:42:36.791Z,36.82
2023-05-21T14:45:18.215Z,37.38
2023-05-21T14:47:48.827Z,36.30
2023-05-21T14:50:18.485Z,35.93
2023-05-21T14:52:47.220Z,35.43
2023-05-21T14:55:18.491Z,35.24
2023-05-21T14:57:47.064Z,36.18
2023-05-21T15:00:16.145Z,36.77
2023-05-21T15:02:45.010Z,36.09
2023-05-21T15:05:13.516Z,35.66
2023-05-21T15:07:42.091Z,36.06
2023-05-21T15:10:11.437Z,36.22
2023-05-21T15:12:42.006Z,35.85
2023-05-21T15:15:12.422Z,35.98
2023-05-21T15:17:40.982Z,36.91
2023-05-21T15:20:10.355Z,37.19
2023-05-21T15:22:38.901Z,36.86
2023-05-21T15:25:08.025Z,37.08
2023-05-21T15:27:36.534Z,36.84
2023-05-21T15:30:07.886Z,36.96
2023-05-21T15:32:36.465Z,37.26
2023-05-21T15:35:05.295Z,38.63
2023-05-21T15:37:34.274Z,38.15
2023-05-21T15:40:03.045Z,38.72
2023-05-21T15:42:31.902Z,38.29
2023-05-21T15:45:00.704Z,38.61
2023-05-21T15:47:30.664Z,38.30
2023-05-21T15:50:00.481Z,38.67
2023-05-21T15:52:29.124Z,39.04
2023-05-21T15:54:57.596Z,39.55
2023-05-21T15:57:26.137Z,38.64
2023-05-21T15:59:54.651Z,38.41
2023-05-21T16:02:23.721Z,38.80
2023-05-21T16:04:53.578Z,38.65
2023-05-21T16:07:24.202Z,38.68
2023-05-21T16:09:52.667Z,38.29
2023-05-21T16:12:21.272Z,39.03
2023-05-21T16:14:50.886Z,39.69
2023-05-21T16:17:19.762Z,39.98
2023-05-21T16:19:48.428Z,38.63
2023-05-21T16:22:20.316Z,38.70
2023-05-21T16:24:49.074Z,38.83
2023-05-21T16:27:17.661Z,39.16
2023-05-21T16:29:46.248Z,39.12
2023-05-21T16:32:15.045Z,40.09
2023-05-21T16:34:43.588Z,39.08
2023-05-21T16:37:12.074Z,39.01
2023-05-21T16:39:42.115Z,38.93
2023-05-21T16:42:10.610Z,38.87
2023-05-21T16:44:39.349Z,38.32
2023-05-21T16:47:07.905Z,38.46
2023-05-21T16:49:36.375Z,38.93
2023-05-21T16:52:05.337Z,38.93
2023-05-21T16:54:34.714Z,39.27
2023-05-21T16:57:04.809Z,39.24
2023-05-21T16:59:33.310Z,39.88
2023-05-21T17:02:01.866Z,39.51
2023-05-21T17:04:30.708Z,39.10
2023-05-21T17:06:59.167Z,39.62
2023-05-21T17:09:27.629Z,39.17
2023-05-21T17:11:56.113Z,39.44
2023-05-21T17:14:34.364Z,39.50
2023-05-21T17:17:03.524Z,39.93
2023-05-21T17:19:32.184Z,39.85
2023-05-21T17:22:00.990Z,40.08
2023-05-21T17:24:29.486Z,40.51
2023-05-21T17:26:58.024Z,40.50
2023-05-21T17:29:27.903Z,40.75
2023-05-21T17:31:56.677Z,40.61
2023-05-21T17:34:29.319Z,41.28
2023-05-21T17:36:59.521Z,40.82
2023-05-21T17:39:28.039Z,41.12
2023-05-21T17:41:57.323Z,41.25
2023-05-21T17:44:27.268Z,41.86
2023-05-21T17:46:56.750Z,41.45
2023-05-21T17:49:25.334Z,41.26
2023-05-21T17:51:54.778Z,41.27
2023-05-21T17:54:23.401Z,41.71
2023-05-21T17:56:52.015Z,41.97
2023-05-21T17:59:21.216Z,41.84
2023-05-21T18:01:51.240Z,41.50
2023-05-21T18:04:19.891Z,41.00
2023-05-21T18:06:48.387Z,41.07
2023-05-21T18:09:16.805Z,41.27
2023-05-21T18:11:45.425Z,41.12
2023-05-21T18:14:13.878Z,41.76
2023-05-21T18:16:42.530Z,41.41
2023-05-21T18:19:13.096Z,41.74
2023-05-21T18:21:41.602Z,42.06
2023-05-21T18:24:10.104Z,41.87
2023-05-21T18:26:38.614Z,41.80
2023-05-21T18:29:07.109Z,42.05
2023-05-21T18:31:35.688Z,41.86
2023-05-21T18:34:04.155Z,42.31
2023-05-21T18:36:38.921Z,42.22
2023-05-21T18:39:08.542Z,42.44
2023-05-21T18:41:37.473Z,42.74
2023-05-21T18:44:07.015Z,43.00
2023-05-21T18:46:35.590Z,42.71
2023-05-21T18:49:04.274Z,42.87
2023-05-21T18:51:34.169Z,43.22
2023-05-21T18:54:02.638Z,43.23
2023-05-21T18:56:31.179Z,43.59
2023-05-21T18:58:59.617Z,43.33
2023-05-21T19:01:28.216Z,43.36
2023-05-21T19:03:56.804Z,43.43
2023-05-21T19:06:27.713Z,43.60
2023-05-21T19:08:57.650Z,43.22
2023-05-21T19:11:30.938Z,43.79
2023-05-21T19:14:00.333Z,43.36
2023-05-21T19:16:28.899Z,43.54
2023-05-21T19:18:57.561Z,43.73
2023-05-21T19:21:26.351Z,43.94
2023-05-21T19:23:54.870Z,43.46
2023-05-21T19:26:24.982Z,44.19
2023-05-21T19:28:54.732Z,44.20
2023-05-21T19:31:23.713Z,44.58
2023-05-21T19:33:52.599Z,44.41
2023-05-21T19:36:22.327Z,44.39
2023-05-21T19:38:51.436Z,44.82
2023-05-21T19:41:22.678Z,45.22
2023-05-21T19:43:52.511Z,44.77
2023-05-21T19:46:21.274Z,44.81
2023-05-21T19:48:50.136Z,45.32
2023-05-21T19:51:18.696Z,45.11
2023-05-21T19:53:47.172Z,44.86
2023-05-21T19:56:15.996Z,45.13
2023-05-21T19:58:47.171Z,45.20
2023-05-21T20:01:17.920Z,45.53
2023-05-21T20:03:46.573Z,45.12
2023-05-21T20:06:19.035Z,45.65
2023-05-21T20:08:47.877Z,45.06
2023-05-21T20:11:16.559Z,45.39
2023-05-21T20:13:48.548Z,45.48
2023-05-21T20:16:19.007Z,45.77
2023-05-21T20:18:47.857Z,45.84
2023-05-21T20:21:18.438Z,45.74
2023-05-21T20:23:47.386Z,46.38
2023-05-21T20:26:16.593Z,45.89
2023-05-21T20:28:45.699Z,46.16
2023-05-21T20:31:14.447Z,46.47
2023-05-21T20:33:44.352Z,46.34
2023-05-21T20:36:15.337Z,46.19
2023-05-21T20:38:45.424Z,46.58
2023-05-21T20:41:14.401Z,46.78
2023-05-21T20:43:45.404Z,46.83
2023-05-21T20:46:13.921Z,46.91
2023-05-21T20:48:43.631Z,47.54
2023-05-21T20:51:13.537Z,47.80
2023-05-21T20:53:42.073Z,48.14
2023-05-21T20:56:11.720Z,48.11
2023-05-21T20:58:40.475Z,48.35
2023-05-21T21:01:10.612Z,48.95
2023-05-21T21:03:41.503Z,49.13
2023-05-21T21:06:10.592Z,49.51
2023-05-21T21:08:41.263Z,49.41
2023-05-21T21:11:09.767Z,49.50
2023-05-21T21:13:38.245Z,49.37
2023-05-21T21:16:07.846Z,49.60
2023-05-21T21:18:36.426Z,49.45
2023-05-21T21:21:05.145Z,49.80
2023-05-21T21:23:33.852Z,50.29
2023-05-21T21:26:03.847Z,50.62
2023-05-21T21:28:32.321Z,50.57
2023-05-21T21:31:00.841Z,50.92
2023-05-21T21:33:29.356Z,50.84
2023-05-21T21:35:57.882Z,51.05
2023-05-21T21:38:26.402Z,51.67
2023-05-21T21:40:55.155Z,51.43
2023-05-21T21:43:25.142Z,51.58
2023-05-21T21:45:53.621Z,52.02
2023-05-21T21:48:22.092Z,51.85
2023-05-21T21:50:50.703Z,52.23
2023-05-21T21:53:19.168Z,52.53
2023-05-21T21:55:47.628Z,52.75
2023-05-21T21:58:16.111Z,52.54
2023-05-21T22:00:46.096Z,52.52
2023-05-21T22:03:15.009Z,52.72
2023-05-21T22:05:43.697Z,52.59
2023-05-21T22:08:12.446Z,52.85
2023-05-21T22:10:41.127Z,52.25
2023-05-21T22:13:09.818Z,52.04
2023-05-21T22:15:38.435Z,51.42
2023-05-21T22:18:10.342Z,51.50
2023-05-21T22:20:39.042Z,52.06
2023-05-21T22:23:07.667Z,51.91
2023-05-21T22:25:36.244Z,52.21
2023-05-21T22:28:04.847Z,52.19
2023-05-21T22:30:33.478Z,52.35
2023-05-21T22:33:02.391Z,51.78
2023-05-21T22:35:32.578Z,51.80
2023-05-21T22:38:01.744Z,51.88
2023-05-21T22:40:30.262Z,51.81
2023-05-21T22:42:59.161Z,52.08
2023-05-21T22:45:28.563Z,52.09
2023-05-21T22:48:01.644Z,51.88
2023-05-21T22:50:32.936Z,51.58
2023-05-21T22:53:02.917Z,51.81
2023-05-21T22:55:31.410Z,51.54
2023-05-21T22:57:59.968Z,52.40
2023-05-21T23:00:28.490Z,52.08
2023-05-21T23:02:57.227Z,52.26
2023-05-21T23:05:25.869Z,51.97
2023-05-21T23:07:54.490Z,52.17
2023-05-21T23:10:24.356Z,52.78
2023-05-21T23:12:52.857Z,52.52
2023-05-21T23:15:21.706Z,52.43
2023-05-21T23:17:50.203Z,52.10
2023-05-21T23:20:18.877Z,51.88
2023-05-21T23:22:47.445Z,51.82
2023-05-21T23:25:15.965Z,51.90
2023-05-21T23:27:46.035Z,51.74
2023-05-21T23:30:14.755Z,51.67
2023-05-21T23:32:43.406Z,52.36
2023-05-21T23:35:14.376Z,52.05
2023-05-21T23:37:43.347Z,52.68
2023-05-21T23:40:13.142Z,52.28
2023-05-21T23:42:41.593Z,52.31
2023-05-21T23:45:12.428Z,52.59
2023-05-21T23:47:41.131Z,53.01
2023-05-21T23:50:10.540Z,52.50
2023-05-21T23:52:39.098Z,52.25
2023-05-21T23:55:08.717Z,52.41
2023-05-21T23:57:37.357Z,52.59
